sensor_id;sensor_type;location;lat;lon;timestamp;temperature;humidity
21035;DHT22;10676;50.848;3.272;2022-10-23T00:02:23;14.40;99.90
21035;DHT22;10676;50.848;3.272;2022-10-23T00:04:50;14.40;99.90
21035;DHT22;10676;50.848;3.272;2022-10-23T00:07:16;14.40;99.90
21035;DHT22;10676;50.848;3.272;2022-10-23T00:09:42;14.40;99.90
21035;DHT22;10676;50.848;3.272;2022-10-23T00:12:07;14.40;99.90
21035;DHT22;10676;50.848;3.272;2022-10-23T00:14:33;14.30;99.90
21035;DHT22;10676;50.848;3.272;2022-10-23T00:16:59;14.30;99.90
21035;DHT22;10676;50.848;3.272;2022-10-23T00:19:24;14.30;99.90
21035;DHT22;10676;50.848;3.272;2022-10-23T00:21:50;14.40;99.90
21035;DHT22;10676;50.848;3.272;2022-10-23T00:24:16;14.40;99.90
21035;DHT22;10676;50.848;3.272;2022-10-23T00:26:42;14.40;99.90
21035;DHT22;10676;50.848;3.272;2022-10-23T00:29:08;14.50;99.90
21035;DHT22;10676;50.848;3.272;2022-10-23T00:31:34;14.50;99.90
21035;DHT22;10676;50.848;3.272;2022-10-23T00:34:00;14.50;99.90
21035;DHT22;10676;50.848;3.272;2022-10-23T00:36:26;14.60;99.90
21035;DHT22;10676;50.848;3.272;2022-10-23T00:38:52;14.60;99.90
21035;DHT22;10676;50.848;3.272;2022-10-23T00:41:25;14.70;99.90
21035;DHT22;10676;50.848;3.272;2022-10-23T00:46:24;14.80;99.90
21035;DHT22;10676;50.848;3.272;2022-10-23T00:48:49;14.80;99.90
21035;DHT22;10676;50.848;3.272;2022-10-23T00:51:16;14.90;99.90
21035;DHT22;10676;50.848;3.272;2022-10-23T00:53:42;14.90;99.90
21035;DHT22;10676;50.848;3.272;2022-10-23T00:56:10;14.90;99.90
21035;DHT22;10676;50.848;3.272;2022-10-23T00:58:36;14.90;99.90
21035;DHT22;10676;50.848;3.272;2022-10-23T01:01:01;14.90;99.90
21035;DHT22;10676;50.848;3.272;2022-10-23T01:03:28;14.90;99.90
21035;DHT22;10676;50.848;3.272;2022-10-23T01:07:02;14.90;99.90
21035;DHT22;10676;50.848;3.272;2022-10-23T01:12:05;14.90;99.90
21035;DHT22;10676;50.848;3.272;2022-10-23T01:14:59;14.90;99.90
21035;DHT22;10676;50.848;3.272;2022-10-23T01:28:17;15.00;99.90
21035;DHT22;10676;50.848;3.272;2022-10-23T01:30:45;15.00;99.90
21035;DHT22;10676;50.848;3.272;2022-10-23T01:33:16;15.00;99.90
21035;DHT22;10676;50.848;3.272;2022-10-23T01:36:05;15.10;99.90
21035;DHT22;10676;50.848;3.272;2022-10-23T01:39:05;15.10;99.90
21035;DHT22;10676;50.848;3.272;2022-10-23T01:46:33;15.10;99.90
21035;DHT22;10676;50.848;3.272;2022-10-23T01:49:04;15.10;99.90
21035;DHT22;10676;50.848;3.272;2022-10-23T01:51:31;15.10;99.90
21035;DHT22;10676;50.848;3.272;2022-10-23T01:53:59;15.10;99.90
21035;DHT22;10676;50.848;3.272;2022-10-23T01:56:30;15.20;99.90
21035;DHT22;10676;50.848;3.272;2022-10-23T01:59:00;15.10;99.90
21035;DHT22;10676;50.848;3.272;2022-10-23T02:01:29;15.20;99.90
21035;DHT22;10676;50.848;3.272;2022-10-23T02:03:56;15.20;99.90
21035;DHT22;10676;50.848;3.272;2022-10-23T02:06:24;15.20;99.90
21035;DHT22;10676;50.848;3.272;2022-10-23T02:08:50;15.20;99.90
21035;DHT22;10676;50.848;3.272;2022-10-23T02:11:18;15.20;99.90
21035;DHT22;10676;50.848;3.272;2022-10-23T02:14:57;15.20;99.90
21035;DHT22;10676;50.848;3.272;2022-10-23T02:20:02;15.10;99.90
21035;DHT22;10676;50.848;3.272;2022-10-23T02:22:41;15.10;99.90
21035;DHT22;10676;50.848;3.272;2022-10-23T02:25:14;15.10;99.90
21035;DHT22;10676;50.848;3.272;2022-10-23T02:27:47;15.10;99.90
21035;DHT22;10676;50.848;3.272;2022-10-23T02:30:15;15.10;99.90
21035;DHT22;10676;50.848;3.272;2022-10-23T02:32:49;15.10;99.90
21035;DHT22;10676;50.848;3.272;2022-10-23T02:35:18;15.10;99.90
21035;DHT22;10676;50.848;3.272;2022-10-23T02:37:52;15.10;99.90
21035;DHT22;10676;50.848;3.272;2022-10-23T02:40:18;15.10;99.90
21035;DHT22;10676;50.848;3.272;2022-10-23T02:43:00;15.10;99.90
21035;DHT22;10676;50.848;3.272;2022-10-23T02:45:56;15.10;99.90
21035;DHT22;10676;50.848;3.272;2022-10-23T02:48:22;15.10;99.90
21035;DHT22;10676;50.848;3.272;2022-10-23T02:51:02;15.00;99.90
21035;DHT22;10676;50.848;3.272;2022-10-23T02:53:45;15.00;99.90
21035;DHT22;10676;50.848;3.272;2022-10-23T03:01:49;15.00;99.90
21035;DHT22;10676;50.848;3.272;2022-10-23T03:04:17;15.00;99.90
21035;DHT22;10676;50.848;3.272;2022-10-23T03:06:45;15.00;99.90
21035;DHT22;10676;50.848;3.272;2022-10-23T03:09:11;15.00;99.90
21035;DHT22;10676;50.848;3.272;2022-10-23T03:11:37;15.00;99.90
21035;DHT22;10676;50.848;3.272;2022-10-23T03:14:03;15.00;99.90
21035;DHT22;10676;50.848;3.272;2022-10-23T03:16:28;15.00;99.90
21035;DHT22;10676;50.848;3.272;2022-10-23T03:18:54;15.00;99.90
21035;DHT22;10676;50.848;3.272;2022-10-23T03:21:20;15.10;99.90
21035;DHT22;10676;50.848;3.272;2022-10-23T03:23:45;15.10;99.90
21035;DHT22;10676;50.848;3.272;2022-10-23T03:26:11;15.10;99.90
21035;DHT22;10676;50.848;3.272;2022-10-23T03:28:36;15.10;99.90
21035;DHT22;10676;50.848;3.272;2022-10-23T03:31:02;15.10;99.90
21035;DHT22;10676;50.848;3.272;2022-10-23T03:33:32;15.10;99.90
21035;DHT22;10676;50.848;3.272;2022-10-23T03:35:57;15.10;99.90
21035;DHT22;10676;50.848;3.272;2022-10-23T03:38:25;15.10;99.90
21035;DHT22;10676;50.848;3.272;2022-10-23T03:40:50;15.10;99.90
21035;DHT22;10676;50.848;3.272;2022-10-23T03:43:16;15.10;99.90
21035;DHT22;10676;50.848;3.272;2022-10-23T03:45:41;15.10;99.90
21035;DHT22;10676;50.848;3.272;2022-10-23T03:48:07;15.00;99.90
21035;DHT22;10676;50.848;3.272;2022-10-23T03:50:34;15.00;99.90
21035;DHT22;10676;50.848;3.272;2022-10-23T03:53:00;15.00;99.90
21035;DHT22;10676;50.848;3.272;2022-10-23T03:55:25;15.00;99.90
21035;DHT22;10676;50.848;3.272;2022-10-23T03:57:52;15.10;99.90
21035;DHT22;10676;50.848;3.272;2022-10-23T04:00:18;15.10;99.90
21035;DHT22;10676;50.848;3.272;2022-10-23T04:02:45;15.00;99.90
21035;DHT22;10676;50.848;3.272;2022-10-23T04:05:11;15.10;99.90
21035;DHT22;10676;50.848;3.272;2022-10-23T04:07:37;15.10;99.90
21035;DHT22;10676;50.848;3.272;2022-10-23T04:10:06;15.10;99.90
21035;DHT22;10676;50.848;3.272;2022-10-23T04:12:33;15.10;99.90
21035;DHT22;10676;50.848;3.272;2022-10-23T04:14:59;15.10;99.90
21035;DHT22;10676;50.848;3.272;2022-10-23T04:17:25;15.10;99.90
21035;DHT22;10676;50.848;3.272;2022-10-23T04:19:50;15.10;99.90
21035;DHT22;10676;50.848;3.272;2022-10-23T04:22:16;15.20;99.90
21035;DHT22;10676;50.848;3.272;2022-10-23T04:24:42;15.20;99.90
21035;DHT22;10676;50.848;3.272;2022-10-23T04:27:11;15.20;99.90
21035;DHT22;10676;50.848;3.272;2022-10-23T04:29:37;15.20;99.90
21035;DHT22;10676;50.848;3.272;2022-10-23T04:32:03;15.30;99.90
21035;DHT22;10676;50.848;3.272;2022-10-23T04:34:28;15.30;99.90
21035;DHT22;10676;50.848;3.272;2022-10-23T04:36:54;15.30;99.90
21035;DHT22;10676;50.848;3.272;2022-10-23T04:39:19;15.40;99.90
21035;DHT22;10676;50.848;3.272;2022-10-23T04:41:45;15.40;99.90
21035;DHT22;10676;50.848;3.272;2022-10-23T04:44:11;15.40;99.90
21035;DHT22;10676;50.848;3.272;2022-10-23T04:46:36;15.50;99.90
21035;DHT22;10676;50.848;3.272;2022-10-23T04:49:02;15.50;99.90
21035;DHT22;10676;50.848;3.272;2022-10-23T04:51:28;15.50;99.90
21035;DHT22;10676;50.848;3.272;2022-10-23T04:53:53;15.50;99.90
21035;DHT22;10676;50.848;3.272;2022-10-23T04:56:19;15.60;99.90
21035;DHT22;10676;50.848;3.272;2022-10-23T04:58:44;15.60;99.90
21035;DHT22;10676;50.848;3.272;2022-10-23T05:01:10;15.60;99.90
21035;DHT22;10676;50.848;3.272;2022-10-23T05:03:37;15.60;99.90
21035;DHT22;10676;50.848;3.272;2022-10-23T05:06:03;15.70;99.90
21035;DHT22;10676;50.848;3.272;2022-10-23T05:08:29;15.70;99.90
21035;DHT22;10676;50.848;3.272;2022-10-23T05:10:54;15.70;99.90
21035;DHT22;10676;50.848;3.272;2022-10-23T05:13:20;15.80;99.90
21035;DHT22;10676;50.848;3.272;2022-10-23T05:15:50;15.80;99.90
21035;DHT22;10676;50.848;3.272;2022-10-23T05:18:29;15.80;99.90
21035;DHT22;10676;50.848;3.272;2022-10-23T05:21:01;15.80;99.90
21035;DHT22;10676;50.848;3.272;2022-10-23T05:23:30;15.80;99.90
21035;DHT22;10676;50.848;3.272;2022-10-23T05:25:57;15.80;99.90
21035;DHT22;10676;50.848;3.272;2022-10-23T05:28:22;15.80;99.90
21035;DHT22;10676;50.848;3.272;2022-10-23T05:30:48;15.90;99.90
21035;DHT22;10676;50.848;3.272;2022-10-23T05:33:14;15.90;99.90
21035;DHT22;10676;50.848;3.272;2022-10-23T05:35:41;15.90;99.90
21035;DHT22;10676;50.848;3.272;2022-10-23T05:38:08;15.80;99.90
21035;DHT22;10676;50.848;3.272;2022-10-23T05:40:34;15.90;99.90
21035;DHT22;10676;50.848;3.272;2022-10-23T05:43:00;15.90;99.90
21035;DHT22;10676;50.848;3.272;2022-10-23T05:45:26;15.80;99.90
21035;DHT22;10676;50.848;3.272;2022-10-23T05:47:51;15.80;99.90
21035;DHT22;10676;50.848;3.272;2022-10-23T05:50:18;15.80;99.90
21035;DHT22;10676;50.848;3.272;2022-10-23T05:52:47;15.80;99.90
21035;DHT22;10676;50.848;3.272;2022-10-23T05:55:14;15.80;99.90
21035;DHT22;10676;50.848;3.272;2022-10-23T05:57:40;15.80;99.90
21035;DHT22;10676;50.848;3.272;2022-10-23T06:00:06;15.80;99.90
21035;DHT22;10676;50.848;3.272;2022-10-23T06:02:32;15.80;99.90
21035;DHT22;10676;50.848;3.272;2022-10-23T06:04:58;15.80;99.90
21035;DHT22;10676;50.848;3.272;2022-10-23T06:07:25;15.80;99.90
21035;DHT22;10676;50.848;3.272;2022-10-23T06:09:51;15.80;99.90
21035;DHT22;10676;50.848;3.272;2022-10-23T06:12:18;15.80;99.90
21035;DHT22;10676;50.848;3.272;2022-10-23T06:14:44;15.90;99.90
21035;DHT22;10676;50.848;3.272;2022-10-23T06:17:09;15.90;99.90
21035;DHT22;10676;50.848;3.272;2022-10-23T06:19:36;15.90;99.90
21035;DHT22;10676;50.848;3.272;2022-10-23T06:22:03;15.90;99.90
21035;DHT22;10676;50.848;3.272;2022-10-23T06:24:29;15.90;99.90
21035;DHT22;10676;50.848;3.272;2022-10-23T06:26:55;15.90;99.90
21035;DHT22;10676;50.848;3.272;2022-10-23T06:29:21;15.80;99.90
21035;DHT22;10676;50.848;3.272;2022-10-23T06:31:46;15.80;99.90
21035;DHT22;10676;50.848;3.272;2022-10-23T06:34:12;15.80;99.90
21035;DHT22;10676;50.848;3.272;2022-10-23T06:36:38;15.90;99.90
21035;DHT22;10676;50.848;3.272;2022-10-23T06:39:05;15.90;99.90
21035;DHT22;10676;50.848;3.272;2022-10-23T06:41:31;15.90;99.90
21035;DHT22;10676;50.848;3.272;2022-10-23T06:43:56;15.90;99.90
21035;DHT22;10676;50.848;3.272;2022-10-23T06:46:23;16.00;99.90
21035;DHT22;10676;50.848;3.272;2022-10-23T06:48:48;16.00;99.90
21035;DHT22;10676;50.848;3.272;2022-10-23T06:51:16;16.10;99.90
21035;DHT22;10676;50.848;3.272;2022-10-23T06:53:54;16.10;99.90
21035;DHT22;10676;50.848;3.272;2022-10-23T06:56:20;16.20;99.90
21035;DHT22;10676;50.848;3.272;2022-10-23T06:58:46;16.20;99.90
21035;DHT22;10676;50.848;3.272;2022-10-23T07:01:12;16.30;99.90
21035;DHT22;10676;50.848;3.272;2022-10-23T07:03:38;16.20;99.90
21035;DHT22;10676;50.848;3.272;2022-10-23T07:06:06;16.20;99.90
21035;DHT22;10676;50.848;3.272;2022-10-23T07:08:32;16.30;99.90
21035;DHT22;10676;50.848;3.272;2022-10-23T07:11:06;16.20;99.90
21035;DHT22;10676;50.848;3.272;2022-10-23T07:13:33;16.20;99.90
21035;DHT22;10676;50.848;3.272;2022-10-23T07:16:07;16.20;99.90
21035;DHT22;10676;50.848;3.272;2022-10-23T07:18:33;16.20;99.90
21035;DHT22;10676;50.848;3.272;2022-10-23T07:20:59;16.10;99.90
21035;DHT22;10676;50.848;3.272;2022-10-23T07:23:25;16.10;99.90
21035;DHT22;10676;50.848;3.272;2022-10-23T07:25:50;16.10;99.90
21035;DHT22;10676;50.848;3.272;2022-10-23T07:28:16;16.10;99.90
21035;DHT22;10676;50.848;3.272;2022-10-23T07:30:42;16.10;99.90
21035;DHT22;10676;50.848;3.272;2022-10-23T07:33:07;16.10;99.90
21035;DHT22;10676;50.848;3.272;2022-10-23T07:35:33;16.10;99.90
21035;DHT22;10676;50.848;3.272;2022-10-23T07:37:59;16.10;99.90
21035;DHT22;10676;50.848;3.272;2022-10-23T07:40:25;16.10;99.90
21035;DHT22;10676;50.848;3.272;2022-10-23T07:42:50;16.10;99.90
21035;DHT22;10676;50.848;3.272;2022-10-23T07:45:16;16.10;99.90
21035;DHT22;10676;50.848;3.272;2022-10-23T07:47:42;16.10;99.90
21035;DHT22;10676;50.848;3.272;2022-10-23T07:50:08;16.10;99.90
21035;DHT22;10676;50.848;3.272;2022-10-23T07:52:34;16.20;99.90
21035;DHT22;10676;50.848;3.272;2022-10-23T07:55:00;16.20;99.90
21035;DHT22;10676;50.848;3.272;2022-10-23T07:57:26;16.10;99.90
21035;DHT22;10676;50.848;3.272;2022-10-23T07:59:52;16.20;99.90
21035;DHT22;10676;50.848;3.272;2022-10-23T08:02:18;16.20;99.90
21035;DHT22;10676;50.848;3.272;2022-10-23T08:04:48;16.20;99.90
21035;DHT22;10676;50.848;3.272;2022-10-23T08:07:13;16.20;99.90
21035;DHT22;10676;50.848;3.272;2022-10-23T08:09:39;16.20;99.90
21035;DHT22;10676;50.848;3.272;2022-10-23T08:12:05;16.20;99.90
21035;DHT22;10676;50.848;3.272;2022-10-23T08:14:30;16.20;99.90
21035;DHT22;10676;50.848;3.272;2022-10-23T08:16:56;16.30;99.90
21035;DHT22;10676;50.848;3.272;2022-10-23T08:19:22;16.30;99.90
21035;DHT22;10676;50.848;3.272;2022-10-23T08:21:47;16.30;99.90
21035;DHT22;10676;50.848;3.272;2022-10-23T08:24:13;16.30;99.90
21035;DHT22;10676;50.848;3.272;2022-10-23T08:26:39;16.40;99.90
21035;DHT22;10676;50.848;3.272;2022-10-23T08:29:04;16.40;99.90
21035;DHT22;10676;50.848;3.272;2022-10-23T08:31:30;16.40;99.90
21035;DHT22;10676;50.848;3.272;2022-10-23T08:33:56;16.40;99.90
21035;DHT22;10676;50.848;3.272;2022-10-23T08:36:24;16.40;99.90
21035;DHT22;10676;50.848;3.272;2022-10-23T08:38:50;16.40;99.90
21035;DHT22;10676;50.848;3.272;2022-10-23T08:43:57;16.50;99.90
21035;DHT22;10676;50.848;3.272;2022-10-23T08:46:28;16.50;99.90
21035;DHT22;10676;50.848;3.272;2022-10-23T08:51:45;16.50;99.90
21035;DHT22;10676;50.848;3.272;2022-10-23T08:54:15;16.60;99.90
21035;DHT22;10676;50.848;3.272;2022-10-23T08:56:48;16.60;99.90
21035;DHT22;10676;50.848;3.272;2022-10-23T08:59:23;16.60;99.90
21035;DHT22;10676;50.848;3.272;2022-10-23T09:02:15;16.60;99.90
21035;DHT22;10676;50.848;3.272;2022-10-23T09:04:45;16.70;99.90
21035;DHT22;10676;50.848;3.272;2022-10-23T09:07:24;16.80;99.90
21035;DHT22;10676;50.848;3.272;2022-10-23T09:10:05;16.90;99.90
21035;DHT22;10676;50.848;3.272;2022-10-23T09:12:35;17.10;99.90
21035;DHT22;10676;50.848;3.272;2022-10-23T09:15:15;17.30;99.90
21035;DHT22;10676;50.848;3.272;2022-10-23T09:17:44;17.50;99.90
21035;DHT22;10676;50.848;3.272;2022-10-23T09:20:12;17.70;99.90
21035;DHT22;10676;50.848;3.272;2022-10-23T09:22:38;17.90;99.90
21035;DHT22;10676;50.848;3.272;2022-10-23T09:25:18;18.00;99.90
21035;DHT22;10676;50.848;3.272;2022-10-23T09:27:49;18.10;99.90
21035;DHT22;10676;50.848;3.272;2022-10-23T09:30:31;18.20;99.90
21035;DHT22;10676;50.848;3.272;2022-10-23T09:32:58;18.30;99.90
21035;DHT22;10676;50.848;3.272;2022-10-23T09:35:27;18.40;99.90
21035;DHT22;10676;50.848;3.272;2022-10-23T09:37:53;18.50;99.90
21035;DHT22;10676;50.848;3.272;2022-10-23T09:40:40;18.60;99.90
21035;DHT22;10676;50.848;3.272;2022-10-23T09:43:16;18.70;99.90
21035;DHT22;10676;50.848;3.272;2022-10-23T09:45:42;18.80;99.90
21035;DHT22;10676;50.848;3.272;2022-10-23T09:48:12;18.80;99.90
21035;DHT22;10676;50.848;3.272;2022-10-23T09:56:33;19.10;99.90
21035;DHT22;10676;50.848;3.272;2022-10-23T09:59:23;19.20;99.90
21035;DHT22;10676;50.848;3.272;2022-10-23T10:01:52;19.40;99.90
21035;DHT22;10676;50.848;3.272;2022-10-23T10:04:18;19.50;99.90
21035;DHT22;10676;50.848;3.272;2022-10-23T10:06:44;19.60;99.90
21035;DHT22;10676;50.848;3.272;2022-10-23T10:09:15;19.70;99.90
21035;DHT22;10676;50.848;3.272;2022-10-23T10:11:52;19.80;99.90
21035;DHT22;10676;50.848;3.272;2022-10-23T10:14:38;20.00;99.90
21035;DHT22;10676;50.848;3.272;2022-10-23T10:17:23;20.10;99.90
21035;DHT22;10676;50.848;3.272;2022-10-23T10:20:14;20.20;99.90
21035;DHT22;10676;50.848;3.272;2022-10-23T10:23:17;20.30;99.90
21035;DHT22;10676;50.848;3.272;2022-10-23T10:28:40;20.50;99.90
21035;DHT22;10676;50.848;3.272;2022-10-23T10:31:32;20.70;99.90
21035;DHT22;10676;50.848;3.272;2022-10-23T10:34:13;20.90;99.90
21035;DHT22;10676;50.848;3.272;2022-10-23T10:37:01;21.00;99.90
21035;DHT22;10676;50.848;3.272;2022-10-23T10:42:23;21.30;99.90
21035;DHT22;10676;50.848;3.272;2022-10-23T10:48:20;21.70;99.90
21035;DHT22;10676;50.848;3.272;2022-10-23T10:50:55;21.90;99.90
21035;DHT22;10676;50.848;3.272;2022-10-23T10:56:18;22.40;99.90
21035;DHT22;10676;50.848;3.272;2022-10-23T10:58:55;22.60;99.90
21035;DHT22;10676;50.848;3.272;2022-10-23T11:03:58;23.00;99.90
21035;DHT22;10676;50.848;3.272;2022-10-23T11:06:29;23.20;99.90
21035;DHT22;10676;50.848;3.272;2022-10-23T11:08:58;23.50;99.90
21035;DHT22;10676;50.848;3.272;2022-10-23T11:11:34;23.70;99.90
21035;DHT22;10676;50.848;3.272;2022-10-23T11:14:01;24.10;99.90
21035;DHT22;10676;50.848;3.272;2022-10-23T11:16:35;24.40;99.90
21035;DHT22;10676;50.848;3.272;2022-10-23T11:22:40;25.00;99.90
21035;DHT22;10676;50.848;3.272;2022-10-23T11:38:35;25.20;99.90
21035;DHT22;10676;50.848;3.272;2022-10-23T11:41:05;25.20;99.90
21035;DHT22;10676;50.848;3.272;2022-10-23T11:43:51;25.20;99.90
21035;DHT22;10676;50.848;3.272;2022-10-23T11:48:53;25.60;99.90
21035;DHT22;10676;50.848;3.272;2022-10-23T11:51:37;25.80;99.90
21035;DHT22;10676;50.848;3.272;2022-10-23T11:56:49;26.10;99.90
21035;DHT22;10676;50.848;3.272;2022-10-23T11:59:31;26.30;99.90
21035;DHT22;10676;50.848;3.272;2022-10-23T12:02:08;26.40;99.90
21035;DHT22;10676;50.848;3.272;2022-10-23T12:04:49;26.30;99.90
21035;DHT22;10676;50.848;3.272;2022-10-23T12:07:33;26.30;99.90
21035;DHT22;10676;50.848;3.272;2022-10-23T12:10:19;26.30;99.90
21035;DHT22;10676;50.848;3.272;2022-10-23T12:12:57;26.40;99.90
21035;DHT22;10676;50.848;3.272;2022-10-23T12:15:25;26.60;99.90
21035;DHT22;10676;50.848;3.272;2022-10-23T12:17:54;26.70;99.90
21035;DHT22;10676;50.848;3.272;2022-10-23T12:21:01;26.80;99.90
21035;DHT22;10676;50.848;3.272;2022-10-23T12:26:21;26.80;99.90
21035;DHT22;10676;50.848;3.272;2022-10-23T12:31:52;27.00;99.90
21035;DHT22;10676;50.848;3.272;2022-10-23T12:39:35;27.10;99.90
21035;DHT22;10676;50.848;3.272;2022-10-23T12:42:04;27.10;99.90
21035;DHT22;10676;50.848;3.272;2022-10-23T12:44:32;26.90;99.90
21035;DHT22;10676;50.848;3.272;2022-10-23T12:47:15;26.80;99.90
21035;DHT22;10676;50.848;3.272;2022-10-23T12:49:48;26.60;99.90
21035;DHT22;10676;50.848;3.272;2022-10-23T12:52:16;26.40;99.90
21035;DHT22;10676;50.848;3.272;2022-10-23T12:54:43;26.30;99.90
21035;DHT22;10676;50.848;3.272;2022-10-23T12:57:28;26.20;99.90
21035;DHT22;10676;50.848;3.272;2022-10-23T12:59:57;26.10;99.90
21035;DHT22;10676;50.848;3.272;2022-10-23T13:02:29;26.10;99.90
21035;DHT22;10676;50.848;3.272;2022-10-23T13:04:59;26.20;99.90
21035;DHT22;10676;50.848;3.272;2022-10-23T13:07:31;26.20;99.90
21035;DHT22;10676;50.848;3.272;2022-10-23T13:09:59;26.20;99.90
21035;DHT22;10676;50.848;3.272;2022-10-23T13:12:27;26.30;99.90
21035;DHT22;10676;50.848;3.272;2022-10-23T13:15:11;26.30;99.90
21035;DHT22;10676;50.848;3.272;2022-10-23T13:17:43;26.40;99.90
21035;DHT22;10676;50.848;3.272;2022-10-23T13:22:46;26.30;99.90
21035;DHT22;10676;50.848;3.272;2022-10-23T13:25:23;26.30;99.90
21035;DHT22;10676;50.848;3.272;2022-10-23T13:27:50;26.30;99.90
21035;DHT22;10676;50.848;3.272;2022-10-23T13:30:29;26.50;99.90
21035;DHT22;10676;50.848;3.272;2022-10-23T13:32:55;26.50;99.90
21035;DHT22;10676;50.848;3.272;2022-10-23T13:35:22;26.60;99.90
21035;DHT22;10676;50.848;3.272;2022-10-23T13:37:48;26.60;99.90
21035;DHT22;10676;50.848;3.272;2022-10-23T13:40:24;26.40;99.90
21035;DHT22;10676;50.848;3.272;2022-10-23T13:42:51;26.30;99.90
21035;DHT22;10676;50.848;3.272;2022-10-23T13:45:19;26.10;99.90
21035;DHT22;10676;50.848;3.272;2022-10-23T13:47:45;25.90;99.90
21035;DHT22;10676;50.848;3.272;2022-10-23T13:50:11;25.60;99.90
21035;DHT22;10676;50.848;3.272;2022-10-23T13:52:37;25.50;99.90
21035;DHT22;10676;50.848;3.272;2022-10-23T13:55:24;25.20;99.90
21035;DHT22;10676;50.848;3.272;2022-10-23T13:57:49;25.00;99.90
21035;DHT22;10676;50.848;3.272;2022-10-23T14:00:15;24.80;99.90
21035;DHT22;10676;50.848;3.272;2022-10-23T14:02:41;24.60;99.90
21035;DHT22;10676;50.848;3.272;2022-10-23T14:05:07;24.40;99.90
21035;DHT22;10676;50.848;3.272;2022-10-23T14:07:33;24.20;99.90
21035;DHT22;10676;50.848;3.272;2022-10-23T14:09:59;24.00;99.90
21035;DHT22;10676;50.848;3.272;2022-10-23T14:12:24;23.90;99.90
21035;DHT22;10676;50.848;3.272;2022-10-23T14:14:53;23.70;99.90
21035;DHT22;10676;50.848;3.272;2022-10-23T14:17:20;23.60;99.90
21035;DHT22;10676;50.848;3.272;2022-10-23T14:19:45;23.40;99.90
21035;DHT22;10676;50.848;3.272;2022-10-23T14:22:11;23.30;99.90
21035;DHT22;10676;50.848;3.272;2022-10-23T14:24:37;23.20;99.90
21035;DHT22;10676;50.848;3.272;2022-10-23T14:27:03;23.10;99.90
21035;DHT22;10676;50.848;3.272;2022-10-23T14:29:28;23.00;99.90
21035;DHT22;10676;50.848;3.272;2022-10-23T14:31:54;22.90;99.90
21035;DHT22;10676;50.848;3.272;2022-10-23T14:34:20;22.80;99.90
21035;DHT22;10676;50.848;3.272;2022-10-23T14:36:45;22.70;99.90
21035;DHT22;10676;50.848;3.272;2022-10-23T14:39:11;22.60;99.90
21035;DHT22;10676;50.848;3.272;2022-10-23T14:41:36;22.60;99.90
21035;DHT22;10676;50.848;3.272;2022-10-23T14:44:05;22.40;99.90
21035;DHT22;10676;50.848;3.272;2022-10-23T14:46:31;22.40;99.90
21035;DHT22;10676;50.848;3.272;2022-10-23T14:48:57;22.40;99.90
21035;DHT22;10676;50.848;3.272;2022-10-23T14:51:25;22.40;99.90
21035;DHT22;10676;50.848;3.272;2022-10-23T14:53:55;22.50;99.90
21035;DHT22;10676;50.848;3.272;2022-10-23T14:56:21;22.70;99.90
21035;DHT22;10676;50.848;3.272;2022-10-23T14:58:47;23.00;99.90
21035;DHT22;10676;50.848;3.272;2022-10-23T15:01:13;23.30;99.90
21035;DHT22;10676;50.848;3.272;2022-10-23T15:03:39;23.60;99.90
21035;DHT22;10676;50.848;3.272;2022-10-23T15:06:05;23.90;99.90
21035;DHT22;10676;50.848;3.272;2022-10-23T15:08:31;24.20;99.90
21035;DHT22;10676;50.848;3.272;2022-10-23T15:11:01;24.40;99.90
21035;DHT22;10676;50.848;3.272;2022-10-23T15:13:27;24.60;99.90
21035;DHT22;10676;50.848;3.272;2022-10-23T15:16:04;24.70;99.90
21035;DHT22;10676;50.848;3.272;2022-10-23T15:18:30;24.70;99.90
21035;DHT22;10676;50.848;3.272;2022-10-23T15:20:56;24.70;99.90
21035;DHT22;10676;50.848;3.272;2022-10-23T15:23:21;24.60;99.90
21035;DHT22;10676;50.848;3.272;2022-10-23T15:25:55;24.50;99.90
21035;DHT22;10676;50.848;3.272;2022-10-23T15:28:21;24.30;99.90
21035;DHT22;10676;50.848;3.272;2022-10-23T15:30:46;24.10;99.90
21035;DHT22;10676;50.848;3.272;2022-10-23T15:33:12;23.80;99.90
21035;DHT22;10676;50.848;3.272;2022-10-23T15:35:38;23.50;99.90
21035;DHT22;10676;50.848;3.272;2022-10-23T15:38:03;23.30;99.90
21035;DHT22;10676;50.848;3.272;2022-10-23T15:40:29;23.00;99.90
21035;DHT22;10676;50.848;3.272;2022-10-23T15:42:54;22.80;99.90
21035;DHT22;10676;50.848;3.272;2022-10-23T15:45:20;22.60;99.90
21035;DHT22;10676;50.848;3.272;2022-10-23T15:47:46;22.30;99.90
21035;DHT22;10676;50.848;3.272;2022-10-23T15:50:11;22.10;99.90
21035;DHT22;10676;50.848;3.272;2022-10-23T15:52:38;21.90;99.90
21035;DHT22;10676;50.848;3.272;2022-10-23T15:55:04;21.80;99.90
21035;DHT22;10676;50.848;3.272;2022-10-23T15:57:30;21.70;99.90
21035;DHT22;10676;50.848;3.272;2022-10-23T15:59:56;21.50;99.90
21035;DHT22;10676;50.848;3.272;2022-10-23T16:02:21;21.40;99.90
21035;DHT22;10676;50.848;3.272;2022-10-23T16:04:47;21.30;99.90
21035;DHT22;10676;50.848;3.272;2022-10-23T16:07:14;21.10;99.90
21035;DHT22;10676;50.848;3.272;2022-10-23T16:09:39;21.00;99.90
21035;DHT22;10676;50.848;3.272;2022-10-23T16:12:11;20.90;99.90
21035;DHT22;10676;50.848;3.272;2022-10-23T16:15:01;20.80;99.90
21035;DHT22;10676;50.848;3.272;2022-10-23T16:17:27;20.70;99.90
21035;DHT22;10676;50.848;3.272;2022-10-23T16:19:52;20.70;99.90
21035;DHT22;10676;50.848;3.272;2022-10-23T16:22:18;20.60;99.90
21035;DHT22;10676;50.848;3.272;2022-10-23T16:24:44;20.60;99.90
21035;DHT22;10676;50.848;3.272;2022-10-23T16:27:09;20.50;99.90
21035;DHT22;10676;50.848;3.272;2022-10-23T16:29:35;20.50;99.90
21035;DHT22;10676;50.848;3.272;2022-10-23T16:32:00;20.50;99.90
21035;DHT22;10676;50.848;3.272;2022-10-23T16:34:26;20.40;99.90
21035;DHT22;10676;50.848;3.272;2022-10-23T16:36:52;20.40;99.90
21035;DHT22;10676;50.848;3.272;2022-10-23T16:39:19;20.40;99.90
21035;DHT22;10676;50.848;3.272;2022-10-23T16:41:46;20.20;99.90
21035;DHT22;10676;50.848;3.272;2022-10-23T16:44:11;20.10;99.90
21035;DHT22;10676;50.848;3.272;2022-10-23T16:46:37;20.00;99.90
21035;DHT22;10676;50.848;3.272;2022-10-23T16:49:04;19.80;99.90
21035;DHT22;10676;50.848;3.272;2022-10-23T16:51:32;19.70;99.90
21035;DHT22;10676;50.848;3.272;2022-10-23T16:53:59;19.60;99.90
21035;DHT22;10676;50.848;3.272;2022-10-23T16:56:26;19.50;99.90
21035;DHT22;10676;50.848;3.272;2022-10-23T16:58:56;19.50;99.90
21035;DHT22;10676;50.848;3.272;2022-10-23T17:01:26;19.40;99.90
21035;DHT22;10676;50.848;3.272;2022-10-23T17:03:53;19.40;99.90
21035;DHT22;10676;50.848;3.272;2022-10-23T17:06:25;19.30;99.90
21035;DHT22;10676;50.848;3.272;2022-10-23T17:08:51;19.30;99.90
21035;DHT22;10676;50.848;3.272;2022-10-23T17:11:29;19.30;99.90
21035;DHT22;10676;50.848;3.272;2022-10-23T17:13:57;19.30;99.90
21035;DHT22;10676;50.848;3.272;2022-10-23T17:16:31;19.30;99.90